weerbeeld Almere Meer informatie weerbeeld Almere


Onweer radar Meer informatie blitzortung!


Regen radar Meer informatie rain snow radar


Apparatuur in gebruik:

Davis VP2

Meteohub

ALIX 1D

Web-Oke


Het weer levert geen direct gevaar op.    Er zijn geen waarschuwingen afgegeven.

METAR rapporten vliegvelden

   
EHAM - Amsterdam/Schiph, Netherlands
Afstand tot: WZW 42 km
Gewijzigd: 19-06-2018 11:25
Grotendeels bewolkt  
Grotendeels bewolkt  
   Wind: WNW 14.8 km/h
Wind: WNW 14.8 km/h
Temperatuur: 18°C
Dauwpunt: 15°C
Vochtigheid: 83%
Barometer: 1022 hPa
Bewolking: Mostly Cloudy
Zicht: meer dan 10 km
Bewolking: Licht bewolkt 1100 ft,
Grotendeels bewolkt 1900 ft
EHAM 190925Z 29008KT 260V320 9999 FEW011 BKN019 18/15 Q1022 BECMG BKN023
EHDL - Deelen Rnlafb, Netherlands
Afstand tot: ZO 49 km
Gewijzigd: 19-06-2018 11:55
Bewolking  
Bewolking  
   Wind: WZW 9.3 km/h
Wind: WZW 9.3 km/h
Temperatuur: 19°C
Dauwpunt: 16°C
Vochtigheid: 83%
Barometer: 1023 hPa
Bewolking: Overcast
Zicht: meer dan 10 km
Bewolking: Gedeeltelijk bewolkt 1300 ft,
Bewolking 1500 ft
EHDL 190955Z AUTO 24005KT 210V340 9999 SCT013 OVC015 19/16 Q1023 GRN
EHKD - De Kooy (navy), Netherlands
Afstand tot: NW 72 km
Gewijzigd: 19-06-2018 11:55
Bewolking  
Bewolking  
   Wind: Westen 14.8 km/h
Wind: Westen 14.8 km/h
Temperatuur: 17°C
Dauwpunt: 15°C
Vochtigheid: 88%
Barometer: 1022 hPa
Bewolking: Overcast
Zicht: meer dan 10 km
Bewolking: Grotendeels bewolkt 700 ft,
Grotendeels bewolkt 800 ft,
Bewolking 4400 ft
EHKD 190955Z AUTO 27008KT 230V310 9999 BKN007 BKN008 OVC044 17/15 Q1022 GRN 26006KT 9999 SCT007 SCT014 BKN030 BECMG SCT020 BKN035
EHRD - Rotterdam Airpor, Netherlands
Afstand tot: ZW 80 km
Gewijzigd: 19-06-2018 11:55
Bewolking  
Bewolking  
   Wind: Westen 14.8 km/h
Wind: Westen 14.8 km/h
Temperatuur: 20°C
Dauwpunt: 15°C
Vochtigheid: 73%
Barometer: 1023 hPa
Bewolking: Overcast
Zicht: meer dan 10 km
Bewolking: Gedeeltelijk bewolkt 2000 ft,
Grotendeels bewolkt 2300 ft,
Bewolking 2600 ft
EHRD 190955Z AUTO 27008KT 240V310 9999 SCT020 BKN023 OVC026 20/15 Q1023 NOSIG
EHVK - Volkel Rnlafb, Netherlands
Afstand tot: ZZO 87 km
Gewijzigd: 19-06-2018 11:55
Bewolking  
Bewolking  
   Wind: WZW 11.1 km/h
Wind: WZW 11.1 km/h
Temperatuur: 19°C
Dauwpunt: 16°C
Vochtigheid: 83%
Barometer: 1023 hPa
Bewolking: Overcast
Zicht: meer dan 10 km
Bewolking: Gedeeltelijk bewolkt 1100 ft,
Grotendeels bewolkt 1300 ft,
Bewolking 1500 ft
EHVK 190955Z AUTO 25006KT 220V310 9999 SCT011/// BKN013/// OVC015/// 19/16 Q1023 GRN 26008KT 9999 SCT010 BKN016 BECMG SCT015 BKN030
EHLW - Leeuwarden Rnlaf, Netherlands
Afstand tot: NNO 95 km
Gewijzigd: 19-06-2018 11:55
Bewolking  
Bewolking  
   Wind: Westen 13 km/h
Wind: Westen 13 km/h
Temperatuur: 18°C
Dauwpunt: 15°C
Vochtigheid: 83%
Barometer: 1021 hPa
Bewolking: Overcast
Zicht: meer dan 10 km
Bewolking: Grotendeels bewolkt 1200 ft,
Grotendeels bewolkt 1600 ft,
Bewolking 4600 ft
EHLW 190955Z AUTO 28007KT 240V310 9999 BKN012 BKN016 OVC046 18/15 Q1021 GRN 28010KT 9999 SCT012 SCT045 RMK R23

Script ontwikkeld door  Saratoga-weather.org Aangepast voor de template door  Weerstation Leuven

U vindt ons ook hier:

Het Weer Aktueel

UK Metoffice

European Weather Network

Weather Underground

AWEKAS